sensor_id;sensor_type;location;lat;lon;timestamp;P1;durP1;ratioP1;P2;durP2;ratioP2
25846;SDS011;13676;50.168;8.568;2022-12-31T00:01:19;2.58;;;1.83;;
25846;SDS011;13676;50.168;8.568;2022-12-31T00:03:45;2.20;;;1.40;;
25846;SDS011;13676;50.168;8.568;2022-12-31T00:08:44;1.58;;;1.30;;
25846;SDS011;13676;50.168;8.568;2022-12-31T00:11:10;1.50;;;1.20;;
25846;SDS011;13676;50.168;8.568;2022-12-31T00:13:36;1.65;;;1.13;;
25846;SDS011;13676;50.168;8.568;2022-12-31T00:16:08;1.40;;;0.90;;
25846;SDS011;13676;50.168;8.568;2022-12-31T00:18:41;1.85;;;1.00;;
25846;SDS011;13676;50.168;8.568;2022-12-31T00:21:08;1.23;;;1.02;;
25846;SDS011;13676;50.168;8.568;2022-12-31T00:23:34;2.38;;;1.10;;
25846;SDS011;13676;50.168;8.568;2022-12-31T00:26:01;1.50;;;1.17;;
25846;SDS011;13676;50.168;8.568;2022-12-31T00:28:30;1.88;;;1.15;;
25846;SDS011;13676;50.168;8.568;2022-12-31T00:30:56;1.92;;;1.30;;
25846;SDS011;13676;50.168;8.568;2022-12-31T00:33:28;1.48;;;1.27;;
25846;SDS011;13676;50.168;8.568;2022-12-31T00:35:53;1.48;;;1.00;;
25846;SDS011;13676;50.168;8.568;2022-12-31T00:38:19;0.85;;;0.77;;
25846;SDS011;13676;50.168;8.568;2022-12-31T00:40:44;1.88;;;1.13;;
25846;SDS011;13676;50.168;8.568;2022-12-31T00:43:09;1.25;;;1.10;;
25846;SDS011;13676;50.168;8.568;2022-12-31T00:45:35;3.05;;;1.30;;
25846;SDS011;13676;50.168;8.568;2022-12-31T00:48:00;2.75;;;1.30;;
25846;SDS011;13676;50.168;8.568;2022-12-31T00:50:25;3.63;;;1.17;;
25846;SDS011;13676;50.168;8.568;2022-12-31T00:52:50;2.78;;;1.10;;
25846;SDS011;13676;50.168;8.568;2022-12-31T00:55:16;1.20;;;1.05;;
25846;SDS011;13676;50.168;8.568;2022-12-31T00:57:41;1.83;;;1.20;;
25846;SDS011;13676;50.168;8.568;2022-12-31T01:00:06;1.30;;;1.20;;
25846;SDS011;13676;50.168;8.568;2022-12-31T01:02:33;2.03;;;1.20;;
25846;SDS011;13676;50.168;8.568;2022-12-31T01:04:58;1.77;;;1.10;;
25846;SDS011;13676;50.168;8.568;2022-12-31T01:07:23;1.90;;;1.10;;
25846;SDS011;13676;50.168;8.568;2022-12-31T01:09:49;1.55;;;1.20;;
25846;SDS011;13676;50.168;8.568;2022-12-31T01:12:14;3.78;;;1.13;;
25846;SDS011;13676;50.168;8.568;2022-12-31T01:14:39;1.48;;;1.00;;
25846;SDS011;13676;50.168;8.568;2022-12-31T01:17:05;3.03;;;1.25;;
25846;SDS011;13676;50.168;8.568;2022-12-31T01:19:30;1.63;;;1.05;;
25846;SDS011;13676;50.168;8.568;2022-12-31T01:21:55;2.05;;;1.55;;
25846;SDS011;13676;50.168;8.568;2022-12-31T01:24:21;2.38;;;1.00;;
25846;SDS011;13676;50.168;8.568;2022-12-31T01:26:46;1.33;;;1.10;;
25846;SDS011;13676;50.168;8.568;2022-12-31T01:29:12;1.02;;;0.80;;
25846;SDS011;13676;50.168;8.568;2022-12-31T01:31:38;1.00;;;0.90;;
25846;SDS011;13676;50.168;8.568;2022-12-31T01:34:03;1.13;;;0.80;;
25846;SDS011;13676;50.168;8.568;2022-12-31T01:36:30;0.75;;;0.75;;
25846;SDS011;13676;50.168;8.568;2022-12-31T01:38:58;2.35;;;1.10;;
25846;SDS011;13676;50.168;8.568;2022-12-31T01:43:52;3.50;;;1.00;;
25846;SDS011;13676;50.168;8.568;2022-12-31T01:46:35;1.90;;;0.85;;
25846;SDS011;13676;50.168;8.568;2022-12-31T01:49:12;0.80;;;0.75;;
25846;SDS011;13676;50.168;8.568;2022-12-31T01:51:40;2.70;;;0.80;;
25846;SDS011;13676;50.168;8.568;2022-12-31T01:54:08;1.13;;;0.95;;
25846;SDS011;13676;50.168;8.568;2022-12-31T01:56:35;3.13;;;0.77;;
25846;SDS011;13676;50.168;8.568;2022-12-31T01:59:02;1.38;;;1.02;;
25846;SDS011;13676;50.168;8.568;2022-12-31T02:01:30;3.05;;;0.80;;
25846;SDS011;13676;50.168;8.568;2022-12-31T02:03:56;1.10;;;0.90;;
25846;SDS011;13676;50.168;8.568;2022-12-31T02:06:23;1.52;;;0.85;;
25846;SDS011;13676;50.168;8.568;2022-12-31T02:08:52;1.10;;;0.90;;
25846;SDS011;13676;50.168;8.568;2022-12-31T02:11:23;0.80;;;0.80;;
25846;SDS011;13676;50.168;8.568;2022-12-31T02:13:50;2.50;;;1.00;;
25846;SDS011;13676;50.168;8.568;2022-12-31T02:16:25;3.25;;;0.80;;
25846;SDS011;13676;50.168;8.568;2022-12-31T02:18:57;1.35;;;0.90;;
25846;SDS011;13676;50.168;8.568;2022-12-31T02:24:01;1.35;;;1.05;;
25846;SDS011;13676;50.168;8.568;2022-12-31T02:35:14;2.83;;;0.90;;
25846;SDS011;13676;50.168;8.568;2022-12-31T02:37:43;1.73;;;0.90;;
25846;SDS011;13676;50.168;8.568;2022-12-31T02:40:12;0.75;;;0.70;;
25846;SDS011;13676;50.168;8.568;2022-12-31T02:42:39;1.27;;;0.90;;
25846;SDS011;13676;50.168;8.568;2022-12-31T02:45:04;1.75;;;1.00;;
25846;SDS011;13676;50.168;8.568;2022-12-31T02:47:37;4.72;;;1.15;;
25846;SDS011;13676;50.168;8.568;2022-12-31T02:53:31;3.53;;;1.10;;
25846;SDS011;13676;50.168;8.568;2022-12-31T02:59:25;1.13;;;0.88;;
25846;SDS011;13676;50.168;8.568;2022-12-31T03:02:15;1.55;;;0.80;;
25846;SDS011;13676;50.168;8.568;2022-12-31T03:04:53;2.42;;;1.20;;
25846;SDS011;13676;50.168;8.568;2022-12-31T03:07:20;1.87;;;1.13;;
25846;SDS011;13676;50.168;8.568;2022-12-31T03:09:48;2.47;;;1.15;;
25846;SDS011;13676;50.168;8.568;2022-12-31T03:12:13;1.85;;;1.13;;
25846;SDS011;13676;50.168;8.568;2022-12-31T03:14:57;2.90;;;0.90;;
25846;SDS011;13676;50.168;8.568;2022-12-31T03:17:23;2.15;;;1.00;;
25846;SDS011;13676;50.168;8.568;2022-12-31T03:19:48;3.08;;;1.30;;
25846;SDS011;13676;50.168;8.568;2022-12-31T03:22:33;2.60;;;1.13;;
25846;SDS011;13676;50.168;8.568;2022-12-31T03:25:03;2.83;;;1.67;;
25846;SDS011;13676;50.168;8.568;2022-12-31T03:27:58;2.55;;;1.00;;
25846;SDS011;13676;50.168;8.568;2022-12-31T03:30:25;4.85;;;1.65;;
25846;SDS011;13676;50.168;8.568;2022-12-31T03:32:50;3.78;;;1.50;;
25846;SDS011;13676;50.168;8.568;2022-12-31T03:35:17;4.50;;;1.23;;
25846;SDS011;13676;50.168;8.568;2022-12-31T03:37:44;4.88;;;1.30;;
25846;SDS011;13676;50.168;8.568;2022-12-31T03:40:11;2.47;;;1.50;;
25846;SDS011;13676;50.168;8.568;2022-12-31T03:42:37;5.13;;;1.60;;
25846;SDS011;13676;50.168;8.568;2022-12-31T03:45:03;3.00;;;1.27;;
25846;SDS011;13676;50.168;8.568;2022-12-31T03:47:29;4.15;;;1.95;;
25846;SDS011;13676;50.168;8.568;2022-12-31T03:49:54;6.05;;;1.90;;
25846;SDS011;13676;50.168;8.568;2022-12-31T03:52:19;2.22;;;1.40;;
25846;SDS011;13676;50.168;8.568;2022-12-31T03:54:45;3.17;;;1.67;;
25846;SDS011;13676;50.168;8.568;2022-12-31T03:57:10;2.75;;;1.55;;
25846;SDS011;13676;50.168;8.568;2022-12-31T03:59:36;5.28;;;1.65;;
25846;SDS011;13676;50.168;8.568;2022-12-31T04:02:01;6.20;;;1.35;;
25846;SDS011;13676;50.168;8.568;2022-12-31T04:04:27;2.88;;;1.52;;
25846;SDS011;13676;50.168;8.568;2022-12-31T04:06:52;3.42;;;1.60;;
25846;SDS011;13676;50.168;8.568;2022-12-31T04:09:17;8.48;;;1.48;;
25846;SDS011;13676;50.168;8.568;2022-12-31T04:11:43;1.75;;;1.30;;
25846;SDS011;13676;50.168;8.568;2022-12-31T04:14:08;2.35;;;1.13;;
25846;SDS011;13676;50.168;8.568;2022-12-31T04:16:33;2.45;;;1.23;;
25846;SDS011;13676;50.168;8.568;2022-12-31T04:18:59;4.15;;;1.42;;
25846;SDS011;13676;50.168;8.568;2022-12-31T04:21:24;3.20;;;1.33;;
25846;SDS011;13676;50.168;8.568;2022-12-31T04:23:49;4.00;;;1.52;;
25846;SDS011;13676;50.168;8.568;2022-12-31T04:26:15;5.10;;;1.42;;
25846;SDS011;13676;50.168;8.568;2022-12-31T04:28:40;2.17;;;1.33;;
25846;SDS011;13676;50.168;8.568;2022-12-31T04:31:05;2.30;;;1.48;;
25846;SDS011;13676;50.168;8.568;2022-12-31T04:33:31;5.65;;;1.50;;
25846;SDS011;13676;50.168;8.568;2022-12-31T04:36:00;5.40;;;1.63;;
25846;SDS011;13676;50.168;8.568;2022-12-31T04:38:25;2.50;;;1.50;;
25846;SDS011;13676;50.168;8.568;2022-12-31T04:40:51;3.53;;;1.60;;
25846;SDS011;13676;50.168;8.568;2022-12-31T04:43:34;2.30;;;1.40;;
25846;SDS011;13676;50.168;8.568;2022-12-31T04:46:00;5.13;;;1.55;;
25846;SDS011;13676;50.168;8.568;2022-12-31T04:48:25;2.75;;;1.33;;
25846;SDS011;13676;50.168;8.568;2022-12-31T04:50:50;3.40;;;1.35;;
25846;SDS011;13676;50.168;8.568;2022-12-31T04:53:16;4.15;;;1.63;;
25846;SDS011;13676;50.168;8.568;2022-12-31T04:55:41;4.20;;;1.52;;
25846;SDS011;13676;50.168;8.568;2022-12-31T04:58:06;4.50;;;1.25;;
25846;SDS011;13676;50.168;8.568;2022-12-31T05:00:32;5.15;;;1.50;;
25846;SDS011;13676;50.168;8.568;2022-12-31T05:02:57;3.40;;;1.45;;
25846;SDS011;13676;50.168;8.568;2022-12-31T05:05:22;3.63;;;1.50;;
25846;SDS011;13676;50.168;8.568;2022-12-31T05:07:48;6.47;;;1.60;;
25846;SDS011;13676;50.168;8.568;2022-12-31T05:10:13;4.43;;;1.50;;
25846;SDS011;13676;50.168;8.568;2022-12-31T05:12:38;3.25;;;1.60;;
25846;SDS011;13676;50.168;8.568;2022-12-31T05:15:04;8.93;;;1.63;;
25846;SDS011;13676;50.168;8.568;2022-12-31T05:17:30;3.25;;;1.40;;
25846;SDS011;13676;50.168;8.568;2022-12-31T05:19:55;3.90;;;1.42;;
25846;SDS011;13676;50.168;8.568;2022-12-31T05:22:20;3.30;;;1.83;;
25846;SDS011;13676;50.168;8.568;2022-12-31T05:24:55;4.32;;;1.58;;
25846;SDS011;13676;50.168;8.568;2022-12-31T05:27:24;1.85;;;1.30;;
25846;SDS011;13676;50.168;8.568;2022-12-31T05:29:51;6.17;;;1.67;;
25846;SDS011;13676;50.168;8.568;2022-12-31T05:32:16;5.18;;;1.70;;
25846;SDS011;13676;50.168;8.568;2022-12-31T05:34:41;2.97;;;1.45;;
25846;SDS011;13676;50.168;8.568;2022-12-31T05:37:07;6.32;;;1.67;;
25846;SDS011;13676;50.168;8.568;2022-12-31T05:39:32;2.88;;;2.03;;
25846;SDS011;13676;50.168;8.568;2022-12-31T05:41:57;2.72;;;1.45;;
25846;SDS011;13676;50.168;8.568;2022-12-31T05:44:23;2.85;;;1.60;;
25846;SDS011;13676;50.168;8.568;2022-12-31T05:46:48;4.97;;;1.20;;
25846;SDS011;13676;50.168;8.568;2022-12-31T05:49:13;1.95;;;1.13;;
25846;SDS011;13676;50.168;8.568;2022-12-31T05:51:39;3.15;;;1.23;;
25846;SDS011;13676;50.168;8.568;2022-12-31T05:54:04;2.13;;;1.30;;
25846;SDS011;13676;50.168;8.568;2022-12-31T05:56:29;3.53;;;1.20;;
25846;SDS011;13676;50.168;8.568;2022-12-31T05:58:55;8.90;;;1.33;;
25846;SDS011;13676;50.168;8.568;2022-12-31T06:01:20;3.10;;;1.20;;
25846;SDS011;13676;50.168;8.568;2022-12-31T06:03:46;3.28;;;1.30;;
25846;SDS011;13676;50.168;8.568;2022-12-31T06:06:11;6.82;;;1.40;;
25846;SDS011;13676;50.168;8.568;2022-12-31T06:08:36;3.90;;;1.60;;
25846;SDS011;13676;50.168;8.568;2022-12-31T06:11:02;6.85;;;1.40;;
25846;SDS011;13676;50.168;8.568;2022-12-31T06:13:27;3.15;;;1.38;;
25846;SDS011;13676;50.168;8.568;2022-12-31T06:15:52;1.45;;;1.10;;
25846;SDS011;13676;50.168;8.568;2022-12-31T06:18:18;2.88;;;1.30;;
25846;SDS011;13676;50.168;8.568;2022-12-31T06:20:43;3.40;;;1.13;;
25846;SDS011;13676;50.168;8.568;2022-12-31T06:23:09;3.33;;;1.67;;
25846;SDS011;13676;50.168;8.568;2022-12-31T06:25:34;2.25;;;1.02;;
25846;SDS011;13676;50.168;8.568;2022-12-31T06:28:00;1.50;;;1.20;;
25846;SDS011;13676;50.168;8.568;2022-12-31T06:30:26;2.92;;;1.33;;
25846;SDS011;13676;50.168;8.568;2022-12-31T06:32:53;2.67;;;1.08;;
25846;SDS011;13676;50.168;8.568;2022-12-31T06:35:19;2.22;;;1.20;;
25846;SDS011;13676;50.168;8.568;2022-12-31T06:37:45;2.33;;;1.30;;
25846;SDS011;13676;50.168;8.568;2022-12-31T06:40:10;3.38;;;1.33;;
25846;SDS011;13676;50.168;8.568;2022-12-31T06:42:36;4.15;;;0.98;;
25846;SDS011;13676;50.168;8.568;2022-12-31T06:45:01;3.85;;;1.13;;
25846;SDS011;13676;50.168;8.568;2022-12-31T06:47:27;3.85;;;1.08;;
25846;SDS011;13676;50.168;8.568;2022-12-31T06:49:52;2.53;;;1.00;;
25846;SDS011;13676;50.168;8.568;2022-12-31T06:52:17;3.50;;;1.27;;
25846;SDS011;13676;50.168;8.568;2022-12-31T06:54:43;4.10;;;1.30;;
25846;SDS011;13676;50.168;8.568;2022-12-31T06:57:09;2.28;;;1.20;;
25846;SDS011;13676;50.168;8.568;2022-12-31T06:59:34;3.67;;;1.25;;
25846;SDS011;13676;50.168;8.568;2022-12-31T07:02:03;2.75;;;1.70;;
25846;SDS011;13676;50.168;8.568;2022-12-31T07:07:44;4.85;;;1.30;;
25846;SDS011;13676;50.168;8.568;2022-12-31T07:12:37;1.02;;;0.80;;
25846;SDS011;13676;50.168;8.568;2022-12-31T07:15:19;3.80;;;1.10;;
25846;SDS011;13676;50.168;8.568;2022-12-31T07:18:01;3.00;;;1.05;;
25846;SDS011;13676;50.168;8.568;2022-12-31T07:20:29;2.85;;;1.25;;
25846;SDS011;13676;50.168;8.568;2022-12-31T07:22:55;3.88;;;1.20;;
25846;SDS011;13676;50.168;8.568;2022-12-31T07:25:20;1.42;;;1.00;;
25846;SDS011;13676;50.168;8.568;2022-12-31T07:46:11;3.50;;;1.15;;
25846;SDS011;13676;50.168;8.568;2022-12-31T07:48:41;3.35;;;1.02;;
25846;SDS011;13676;50.168;8.568;2022-12-31T07:51:10;1.92;;;1.10;;
25846;SDS011;13676;50.168;8.568;2022-12-31T07:53:36;2.20;;;0.93;;
25846;SDS011;13676;50.168;8.568;2022-12-31T07:56:02;1.15;;;0.95;;
25846;SDS011;13676;50.168;8.568;2022-12-31T08:01:07;3.92;;;1.20;;
25846;SDS011;13676;50.168;8.568;2022-12-31T08:09:05;1.50;;;1.05;;
25846;SDS011;13676;50.168;8.568;2022-12-31T08:14:19;4.72;;;1.23;;
25846;SDS011;13676;50.168;8.568;2022-12-31T08:16:44;2.15;;;1.40;;
25846;SDS011;13676;50.168;8.568;2022-12-31T08:19:15;1.83;;;0.90;;
25846;SDS011;13676;50.168;8.568;2022-12-31T08:36:09;7.93;;;1.75;;
25846;SDS011;13676;50.168;8.568;2022-12-31T08:38:42;2.97;;;1.30;;
25846;SDS011;13676;50.168;8.568;2022-12-31T08:43:57;4.38;;;1.90;;
25846;SDS011;13676;50.168;8.568;2022-12-31T08:47:16;3.17;;;1.40;;
25846;SDS011;13676;50.168;8.568;2022-12-31T08:49:28;4.25;;;1.50;;
25846;SDS011;13676;50.168;8.568;2022-12-31T08:51:55;4.22;;;1.40;;
25846;SDS011;13676;50.168;8.568;2022-12-31T08:54:21;2.50;;;1.40;;
25846;SDS011;13676;50.168;8.568;2022-12-31T08:57:02;4.03;;;1.50;;
25846;SDS011;13676;50.168;8.568;2022-12-31T09:05:01;3.53;;;1.50;;
25846;SDS011;13676;50.168;8.568;2022-12-31T09:07:35;5.18;;;1.58;;
25846;SDS011;13676;50.168;8.568;2022-12-31T09:13:24;2.85;;;1.50;;
25846;SDS011;13676;50.168;8.568;2022-12-31T09:18:42;3.20;;;1.40;;
25846;SDS011;13676;50.168;8.568;2022-12-31T09:21:11;5.38;;;1.73;;
25846;SDS011;13676;50.168;8.568;2022-12-31T09:23:38;4.60;;;1.80;;
25846;SDS011;13676;50.168;8.568;2022-12-31T09:29:03;3.05;;;1.70;;
25846;SDS011;13676;50.168;8.568;2022-12-31T09:31:35;5.68;;;1.75;;
25846;SDS011;13676;50.168;8.568;2022-12-31T09:36:37;4.72;;;1.80;;
25846;SDS011;13676;50.168;8.568;2022-12-31T09:56:35;4.07;;;1.80;;
25846;SDS011;13676;50.168;8.568;2022-12-31T10:12:17;6.30;;;2.10;;
25846;SDS011;13676;50.168;8.568;2022-12-31T10:42:45;4.03;;;1.77;;
25846;SDS011;13676;50.168;8.568;2022-12-31T10:45:49;2.83;;;1.50;;
25846;SDS011;13676;50.168;8.568;2022-12-31T10:48:47;3.80;;;1.60;;
25846;SDS011;13676;50.168;8.568;2022-12-31T11:08:08;11.38;;;2.03;;
25846;SDS011;13676;50.168;8.568;2022-12-31T11:11:04;6.75;;;1.80;;
25846;SDS011;13676;50.168;8.568;2022-12-31T11:37:43;6.45;;;1.80;;
25846;SDS011;13676;50.168;8.568;2022-12-31T11:40:24;7.35;;;2.00;;
25846;SDS011;13676;50.168;8.568;2022-12-31T11:56:24;3.95;;;2.00;;
25846;SDS011;13676;50.168;8.568;2022-12-31T11:59:11;7.63;;;1.92;;
25846;SDS011;13676;50.168;8.568;2022-12-31T12:04:35;8.00;;;1.73;;
25846;SDS011;13676;50.168;8.568;2022-12-31T12:07:00;7.63;;;2.00;;
25846;SDS011;13676;50.168;8.568;2022-12-31T12:09:27;7.80;;;1.90;;
25846;SDS011;13676;50.168;8.568;2022-12-31T12:11:58;2.67;;;1.75;;
25846;SDS011;13676;50.168;8.568;2022-12-31T12:17:05;1.73;;;1.40;;
25846;SDS011;13676;50.168;8.568;2022-12-31T12:19:33;4.50;;;1.80;;
25846;SDS011;13676;50.168;8.568;2022-12-31T12:22:08;7.38;;;2.38;;
25846;SDS011;13676;50.168;8.568;2022-12-31T12:27:30;6.30;;;2.05;;
25846;SDS011;13676;50.168;8.568;2022-12-31T12:29:56;8.15;;;1.92;;
25846;SDS011;13676;50.168;8.568;2022-12-31T12:32:23;3.20;;;1.55;;
25846;SDS011;13676;50.168;8.568;2022-12-31T12:34:50;2.92;;;1.67;;
25846;SDS011;13676;50.168;8.568;2022-12-31T12:37:25;5.78;;;2.00;;
25846;SDS011;13676;50.168;8.568;2022-12-31T12:39:56;2.63;;;1.50;;
25846;SDS011;13676;50.168;8.568;2022-12-31T12:42:23;5.78;;;1.73;;
25846;SDS011;13676;50.168;8.568;2022-12-31T12:44:58;5.50;;;1.85;;
25846;SDS011;13676;50.168;8.568;2022-12-31T12:47:24;3.67;;;1.88;;
25846;SDS011;13676;50.168;8.568;2022-12-31T12:49:52;9.15;;;1.67;;
25846;SDS011;13676;50.168;8.568;2022-12-31T12:52:40;4.63;;;2.00;;
25846;SDS011;13676;50.168;8.568;2022-12-31T13:19:47;6.85;;;1.63;;
25846;SDS011;13676;50.168;8.568;2022-12-31T13:22:37;2.92;;;1.52;;
25846;SDS011;13676;50.168;8.568;2022-12-31T13:25:20;4.45;;;1.83;;
25846;SDS011;13676;50.168;8.568;2022-12-31T13:27:51;4.93;;;1.80;;
25846;SDS011;13676;50.168;8.568;2022-12-31T13:33:27;8.50;;;1.55;;
25846;SDS011;13676;50.168;8.568;2022-12-31T13:35:56;3.50;;;1.60;;
25846;SDS011;13676;50.168;8.568;2022-12-31T13:38:30;3.03;;;1.58;;
25846;SDS011;13676;50.168;8.568;2022-12-31T13:41:00;3.15;;;1.52;;
25846;SDS011;13676;50.168;8.568;2022-12-31T13:43:35;3.13;;;1.50;;
25846;SDS011;13676;50.168;8.568;2022-12-31T13:48:31;4.38;;;1.52;;
25846;SDS011;13676;50.168;8.568;2022-12-31T13:51:23;3.25;;;1.52;;
25846;SDS011;13676;50.168;8.568;2022-12-31T13:56:45;3.80;;;1.50;;
25846;SDS011;13676;50.168;8.568;2022-12-31T13:59:14;3.28;;;1.40;;
25846;SDS011;13676;50.168;8.568;2022-12-31T14:01:45;2.55;;;1.33;;
25846;SDS011;13676;50.168;8.568;2022-12-31T14:04:17;2.88;;;1.60;;
25846;SDS011;13676;50.168;8.568;2022-12-31T14:06:56;2.90;;;1.63;;
25846;SDS011;13676;50.168;8.568;2022-12-31T14:09:24;4.35;;;1.48;;
25846;SDS011;13676;50.168;8.568;2022-12-31T14:20:44;7.10;;;1.55;;
25846;SDS011;13676;50.168;8.568;2022-12-31T14:25:54;3.05;;;1.65;;
25846;SDS011;13676;50.168;8.568;2022-12-31T14:28:26;4.85;;;1.80;;
25846;SDS011;13676;50.168;8.568;2022-12-31T14:30:59;5.40;;;1.40;;
25846;SDS011;13676;50.168;8.568;2022-12-31T14:33:36;3.85;;;1.50;;
25846;SDS011;13676;50.168;8.568;2022-12-31T14:51:42;5.37;;;2.23;;
25846;SDS011;13676;50.168;8.568;2022-12-31T14:54:24;1.88;;;1.30;;
25846;SDS011;13676;50.168;8.568;2022-12-31T14:57:07;6.00;;;1.35;;
25846;SDS011;13676;50.168;8.568;2022-12-31T14:59:34;2.70;;;1.30;;
25846;SDS011;13676;50.168;8.568;2022-12-31T15:02:00;2.88;;;1.40;;
25846;SDS011;13676;50.168;8.568;2022-12-31T15:04:42;6.05;;;1.50;;
25846;SDS011;13676;50.168;8.568;2022-12-31T15:07:19;4.93;;;1.48;;
25846;SDS011;13676;50.168;8.568;2022-12-31T15:15:41;4.00;;;1.45;;
25846;SDS011;13676;50.168;8.568;2022-12-31T15:21:26;3.45;;;1.30;;
25846;SDS011;13676;50.168;8.568;2022-12-31T15:23:54;6.10;;;1.30;;
25846;SDS011;13676;50.168;8.568;2022-12-31T15:29:23;6.57;;;3.95;;
25846;SDS011;13676;50.168;8.568;2022-12-31T15:31:49;2.67;;;1.38;;
25846;SDS011;13676;50.168;8.568;2022-12-31T15:36:52;4.18;;;1.67;;
25846;SDS011;13676;50.168;8.568;2022-12-31T15:39:23;2.03;;;1.23;;
25846;SDS011;13676;50.168;8.568;2022-12-31T15:41:54;2.85;;;1.30;;
25846;SDS011;13676;50.168;8.568;2022-12-31T15:50:02;4.15;;;1.30;;
25846;SDS011;13676;50.168;8.568;2022-12-31T15:52:35;6.05;;;1.85;;
25846;SDS011;13676;50.168;8.568;2022-12-31T15:55:04;2.83;;;1.67;;
25846;SDS011;13676;50.168;8.568;2022-12-31T15:57:39;2.10;;;1.30;;
25846;SDS011;13676;50.168;8.568;2022-12-31T16:00:28;4.22;;;1.38;;
25846;SDS011;13676;50.168;8.568;2022-12-31T16:02:52;1.95;;;1.25;;
25846;SDS011;13676;50.168;8.568;2022-12-31T16:05:20;2.92;;;1.45;;
25846;SDS011;13676;50.168;8.568;2022-12-31T16:07:47;8.10;;;1.67;;
25846;SDS011;13676;50.168;8.568;2022-12-31T16:10:45;2.80;;;1.58;;
25846;SDS011;13676;50.168;8.568;2022-12-31T16:13:04;4.72;;;1.67;;
25846;SDS011;13676;50.168;8.568;2022-12-31T16:15:30;2.85;;;1.30;;
25846;SDS011;13676;50.168;8.568;2022-12-31T16:17:57;2.90;;;1.60;;
25846;SDS011;13676;50.168;8.568;2022-12-31T16:20:29;4.30;;;1.40;;
25846;SDS011;13676;50.168;8.568;2022-12-31T16:22:56;5.20;;;1.48;;
25846;SDS011;13676;50.168;8.568;2022-12-31T16:25:22;6.65;;;2.35;;
25846;SDS011;13676;50.168;8.568;2022-12-31T16:27:52;6.38;;;4.22;;
25846;SDS011;13676;50.168;8.568;2022-12-31T16:30:19;6.55;;;3.40;;
25846;SDS011;13676;50.168;8.568;2022-12-31T16:32:50;4.40;;;2.25;;
25846;SDS011;13676;50.168;8.568;2022-12-31T16:37:59;4.43;;;2.17;;
25846;SDS011;13676;50.168;8.568;2022-12-31T16:40:32;2.25;;;1.77;;
25846;SDS011;13676;50.168;8.568;2022-12-31T16:42:58;5.70;;;1.67;;
25846;SDS011;13676;50.168;8.568;2022-12-31T16:45:28;2.13;;;1.45;;
25846;SDS011;13676;50.168;8.568;2022-12-31T16:48:17;3.70;;;1.95;;
25846;SDS011;13676;50.168;8.568;2022-12-31T16:50:45;3.55;;;1.95;;
25846;SDS011;13676;50.168;8.568;2022-12-31T16:53:13;5.53;;;1.88;;
25846;SDS011;13676;50.168;8.568;2022-12-31T16:55:41;3.58;;;2.00;;
25846;SDS011;13676;50.168;8.568;2022-12-31T16:58:26;3.88;;;2.13;;
25846;SDS011;13676;50.168;8.568;2022-12-31T17:00:54;3.65;;;2.30;;
25846;SDS011;13676;50.168;8.568;2022-12-31T17:03:24;4.50;;;2.42;;
25846;SDS011;13676;50.168;8.568;2022-12-31T17:08:24;2.38;;;1.90;;
25846;SDS011;13676;50.168;8.568;2022-12-31T17:11:02;5.03;;;2.28;;
25846;SDS011;13676;50.168;8.568;2022-12-31T17:13:29;3.38;;;1.88;;
25846;SDS011;13676;50.168;8.568;2022-12-31T17:15:56;6.15;;;2.03;;
25846;SDS011;13676;50.168;8.568;2022-12-31T17:18:24;5.15;;;2.28;;
25846;SDS011;13676;50.168;8.568;2022-12-31T17:20:51;3.38;;;2.22;;
25846;SDS011;13676;50.168;8.568;2022-12-31T17:23:27;5.40;;;1.80;;
25846;SDS011;13676;50.168;8.568;2022-12-31T17:26:00;3.60;;;2.20;;
25846;SDS011;13676;50.168;8.568;2022-12-31T17:28:31;3.65;;;2.35;;
25846;SDS011;13676;50.168;8.568;2022-12-31T17:31:23;5.25;;;2.60;;
25846;SDS011;13676;50.168;8.568;2022-12-31T17:33:49;4.10;;;2.13;;
25846;SDS011;13676;50.168;8.568;2022-12-31T17:36:23;2.70;;;2.15;;
25846;SDS011;13676;50.168;8.568;2022-12-31T17:38:49;4.05;;;2.17;;
25846;SDS011;13676;50.168;8.568;2022-12-31T17:41:15;3.25;;;1.92;;
25846;SDS011;13676;50.168;8.568;2022-12-31T17:43:46;5.70;;;2.53;;
25846;SDS011;13676;50.168;8.568;2022-12-31T17:46:15;3.03;;;2.17;;
25846;SDS011;13676;50.168;8.568;2022-12-31T17:48:41;4.50;;;2.65;;
25846;SDS011;13676;50.168;8.568;2022-12-31T17:51:07;3.92;;;2.78;;
25846;SDS011;13676;50.168;8.568;2022-12-31T17:53:32;6.55;;;2.75;;
25846;SDS011;13676;50.168;8.568;2022-12-31T17:55:59;6.25;;;2.70;;
25846;SDS011;13676;50.168;8.568;2022-12-31T17:58:36;8.85;;;3.08;;
25846;SDS011;13676;50.168;8.568;2022-12-31T18:01:07;3.85;;;3.00;;
25846;SDS011;13676;50.168;8.568;2022-12-31T18:03:33;7.13;;;3.45;;
25846;SDS011;13676;50.168;8.568;2022-12-31T18:05:59;6.72;;;2.88;;
25846;SDS011;13676;50.168;8.568;2022-12-31T18:08:24;4.03;;;2.90;;
25846;SDS011;13676;50.168;8.568;2022-12-31T18:10:50;4.15;;;2.58;;
25846;SDS011;13676;50.168;8.568;2022-12-31T18:13:17;4.03;;;2.60;;
25846;SDS011;13676;50.168;8.568;2022-12-31T18:15:43;3.25;;;2.38;;
25846;SDS011;13676;50.168;8.568;2022-12-31T18:18:22;3.80;;;2.50;;
25846;SDS011;13676;50.168;8.568;2022-12-31T18:20:51;5.68;;;3.20;;
25846;SDS011;13676;50.168;8.568;2022-12-31T18:23:19;5.57;;;3.35;;
25846;SDS011;13676;50.168;8.568;2022-12-31T18:25:47;8.23;;;2.58;;
25846;SDS011;13676;50.168;8.568;2022-12-31T18:28:12;7.25;;;2.70;;
25846;SDS011;13676;50.168;8.568;2022-12-31T18:30:37;5.75;;;2.20;;
25846;SDS011;13676;50.168;8.568;2022-12-31T18:33:03;13.55;;;4.22;;
25846;SDS011;13676;50.168;8.568;2022-12-31T18:35:30;7.70;;;4.10;;
25846;SDS011;13676;50.168;8.568;2022-12-31T18:37:56;5.70;;;2.90;;
25846;SDS011;13676;50.168;8.568;2022-12-31T18:40:22;4.75;;;2.38;;
25846;SDS011;13676;50.168;8.568;2022-12-31T18:42:47;4.70;;;2.10;;
25846;SDS011;13676;50.168;8.568;2022-12-31T18:45:14;6.72;;;2.35;;
25846;SDS011;13676;50.168;8.568;2022-12-31T18:47:41;5.07;;;2.35;;
25846;SDS011;13676;50.168;8.568;2022-12-31T18:50:07;4.80;;;2.00;;
25846;SDS011;13676;50.168;8.568;2022-12-31T18:52:38;2.97;;;2.05;;
25846;SDS011;13676;50.168;8.568;2022-12-31T18:55:11;4.18;;;1.98;;
25846;SDS011;13676;50.168;8.568;2022-12-31T18:57:45;6.00;;;2.10;;
25846;SDS011;13676;50.168;8.568;2022-12-31T19:00:10;6.22;;;2.80;;
25846;SDS011;13676;50.168;8.568;2022-12-31T19:02:36;5.00;;;2.53;;
25846;SDS011;13676;50.168;8.568;2022-12-31T19:05:04;8.88;;;3.55;;
25846;SDS011;13676;50.168;8.568;2022-12-31T19:07:59;5.32;;;2.33;;
25846;SDS011;13676;50.168;8.568;2022-12-31T19:10:25;3.45;;;2.30;;
25846;SDS011;13676;50.168;8.568;2022-12-31T19:12:52;4.97;;;2.47;;
25846;SDS011;13676;50.168;8.568;2022-12-31T19:15:21;5.35;;;2.60;;
25846;SDS011;13676;50.168;8.568;2022-12-31T19:17:47;5.72;;;2.40;;
25846;SDS011;13676;50.168;8.568;2022-12-31T19:20:12;3.95;;;2.25;;
25846;SDS011;13676;50.168;8.568;2022-12-31T19:22:38;8.27;;;2.53;;
25846;SDS011;13676;50.168;8.568;2022-12-31T19:25:10;3.83;;;1.90;;
25846;SDS011;13676;50.168;8.568;2022-12-31T19:27:41;3.33;;;2.00;;
25846;SDS011;13676;50.168;8.568;2022-12-31T19:30:10;3.25;;;2.20;;
25846;SDS011;13676;50.168;8.568;2022-12-31T19:32:40;9.77;;;2.80;;
25846;SDS011;13676;50.168;8.568;2022-12-31T19:35:05;5.00;;;2.20;;
25846;SDS011;13676;50.168;8.568;2022-12-31T19:37:30;6.50;;;2.60;;
25846;SDS011;13676;50.168;8.568;2022-12-31T19:39:56;4.53;;;2.30;;
25846;SDS011;13676;50.168;8.568;2022-12-31T19:42:21;6.63;;;3.45;;
25846;SDS011;13676;50.168;8.568;2022-12-31T19:44:46;7.15;;;3.13;;
25846;SDS011;13676;50.168;8.568;2022-12-31T19:47:12;5.40;;;2.50;;
25846;SDS011;13676;50.168;8.568;2022-12-31T19:49:37;3.85;;;2.17;;
25846;SDS011;13676;50.168;8.568;2022-12-31T19:52:03;4.85;;;2.80;;
25846;SDS011;13676;50.168;8.568;2022-12-31T19:54:28;5.40;;;2.72;;
25846;SDS011;13676;50.168;8.568;2022-12-31T19:56:53;5.18;;;3.05;;
25846;SDS011;13676;50.168;8.568;2022-12-31T19:59:19;3.97;;;2.80;;